createdAt,value
2017-10-20T00:01:12.681Z,11.00
2017-10-20T00:03:39.571Z,10.73
2017-10-20T00:06:06.466Z,11.93
2017-10-20T00:08:33.423Z,10.70
2017-10-20T00:11:00.365Z,11.90
2017-10-20T00:13:27.249Z,10.80
2017-10-20T00:15:54.254Z,10.40
2017-10-20T00:18:21.190Z,11.40
2017-10-20T00:20:48.155Z,11.03
2017-10-20T00:23:15.078Z,11.27
2017-10-20T00:25:41.971Z,11.60
2017-10-20T00:28:09.296Z,11.40
2017-10-20T00:30:36.220Z,10.83
2017-10-20T00:33:03.105Z,11.37
2017-10-20T00:35:30.392Z,12.53
2017-10-20T00:37:57.318Z,10.67
2017-10-20T00:40:24.238Z,12.23
2017-10-20T00:42:51.127Z,10.90
2017-10-20T00:45:18.083Z,11.30
2017-10-20T00:47:45.069Z,11.80
2017-10-20T00:50:11.949Z,11.23
2017-10-20T00:52:38.874Z,11.03
2017-10-20T00:55:06.154Z,11.17
2017-10-20T00:57:33.041Z,10.97
2017-10-20T00:59:59.961Z,11.33
2017-10-20T01:02:26.862Z,11.67
2017-10-20T01:04:54.149Z,12.23
2017-10-20T01:07:21.061Z,11.47
2017-10-20T01:09:48.347Z,10.53
2017-10-20T01:12:15.242Z,9.73
2017-10-20T01:14:42.166Z,10.93
2017-10-20T01:17:09.067Z,11.97
2017-10-20T01:19:36.418Z,10.87
2017-10-20T01:22:03.741Z,10.97
2017-10-20T01:24:30.633Z,11.20
2017-10-20T01:26:57.527Z,11.30
2017-10-20T01:29:24.444Z,10.90
2017-10-20T01:31:51.330Z,13.20
2017-10-20T01:34:18.250Z,11.33
2017-10-20T01:36:45.133Z,12.07
2017-10-20T01:39:12.424Z,10.77
2017-10-20T01:41:39.355Z,10.17
2017-10-20T01:44:06.640Z,11.00
2017-10-20T01:46:33.529Z,10.93
2017-10-20T01:49:00.454Z,11.07
2017-10-20T01:51:27.341Z,11.07
2017-10-20T01:53:54.630Z,11.73
2017-10-20T01:56:21.550Z,11.20
2017-10-20T01:58:48.457Z,12.03
2017-10-20T02:01:15.347Z,11.63
2017-10-20T02:03:42.262Z,11.57
2017-10-20T02:06:09.146Z,11.30
2017-10-20T02:08:36.029Z,11.00
2017-10-20T02:11:02.953Z,11.80
2017-10-20T02:13:29.841Z,11.60
2017-10-20T02:15:56.721Z,11.83
2017-10-20T02:18:23.638Z,10.23
2017-10-20T02:20:50.914Z,11.30
2017-10-20T02:23:17.838Z,11.93
2017-10-20T02:25:45.150Z,13.37
2017-10-20T02:28:12.042Z,13.50
2017-10-20T02:30:39.322Z,11.00
2017-10-20T02:33:06.245Z,12.20
2017-10-20T02:35:33.532Z,12.50
2017-10-20T02:38:00.421Z,11.87
2017-10-20T02:40:27.378Z,12.63
2017-10-20T02:42:54.267Z,12.43
2017-10-20T02:45:21.153Z,12.33
2017-10-20T02:47:48.078Z,13.40
2017-10-20T02:50:14.959Z,12.70
2017-10-20T02:52:41.846Z,12.90
2017-10-20T02:55:08.807Z,11.73
2017-10-20T02:57:35.695Z,12.00
2017-10-20T03:00:02.585Z,12.57
2017-10-20T03:02:29.502Z,13.77
2017-10-20T03:04:56.801Z,11.57
2017-10-20T03:07:23.778Z,12.60
2017-10-20T03:09:50.698Z,13.27
2017-10-20T03:12:17.681Z,12.80
2017-10-20T03:14:44.977Z,14.90
2017-10-20T03:17:11.966Z,14.57
2017-10-20T03:21:56.586Z,14.20
2017-10-20T03:24:23.485Z,14.17
2017-10-20T03:26:50.441Z,13.47
2017-10-20T03:29:17.357Z,13.93
2017-10-20T03:31:44.237Z,13.77
2017-10-20T03:34:11.169Z,13.20
2017-10-20T03:36:38.082Z,13.90
2017-10-20T03:39:05.079Z,12.93
2017-10-20T03:41:32.026Z,13.80
2017-10-20T03:43:58.971Z,12.40
2017-10-20T03:46:25.862Z,12.50
2017-10-20T03:48:52.746Z,14.87
2017-10-20T03:51:19.677Z,13.20
2017-10-20T03:53:46.572Z,13.67
2017-10-20T03:56:13.498Z,14.33
2017-10-20T03:58:40.451Z,12.50
2017-10-20T04:01:07.336Z,13.37
2017-10-20T04:03:34.242Z,16.33
2017-10-20T04:06:01.562Z,13.93
2017-10-20T04:08:28.450Z,13.23
2017-10-20T04:10:55.735Z,12.50
2017-10-20T04:13:22.656Z,14.17
2017-10-20T04:15:49.989Z,13.50
2017-10-20T04:18:16.870Z,13.00
2017-10-20T04:20:43.882Z,12.27
2017-10-20T04:23:10.830Z,11.87
2017-10-20T04:25:37.722Z,12.70
2017-10-20T04:28:04.633Z,12.97
2017-10-20T04:30:31.910Z,13.57
2017-10-20T04:32:58.813Z,12.80
2017-10-20T04:35:25.806Z,13.23
2017-10-20T04:37:52.714Z,11.60
2017-10-20T04:40:19.607Z,12.47
2017-10-20T04:42:46.593Z,12.70
2017-10-20T04:45:13.553Z,13.07
2017-10-20T04:47:40.503Z,14.17
2017-10-20T04:50:07.438Z,12.20
2017-10-20T04:52:34.490Z,13.43
2017-10-20T04:55:01.434Z,12.20
2017-10-20T04:57:28.382Z,12.50
2017-10-20T04:59:55.269Z,13.30
2017-10-20T05:02:22.181Z,13.10
2017-10-20T05:04:49.530Z,13.40
2017-10-20T05:07:16.474Z,13.20
2017-10-20T05:09:43.426Z,13.30
2017-10-20T05:12:10.372Z,13.37
2017-10-20T05:14:37.306Z,12.80
2017-10-20T05:17:04.263Z,15.90
2017-10-20T05:19:31.150Z,14.07
2017-10-20T05:21:58.153Z,13.77
2017-10-20T05:24:25.103Z,13.67
2017-10-20T05:26:52.054Z,14.23
2017-10-20T05:29:18.969Z,14.27
2017-10-20T05:31:45.854Z,13.67
2017-10-20T05:34:12.737Z,13.90
2017-10-20T05:36:39.654Z,15.00
2017-10-20T05:39:06.934Z,14.77
2017-10-20T05:41:33.910Z,14.10
2017-10-20T05:44:00.883Z,13.53
2017-10-20T05:46:27.762Z,13.13
2017-10-20T05:48:54.678Z,12.77
2017-10-20T05:51:22.022Z,14.00
2017-10-20T05:53:48.967Z,13.40
2017-10-20T05:56:15.921Z,13.17
2017-10-20T05:58:43.315Z,12.80
2017-10-20T06:01:10.230Z,13.23
2017-10-20T06:03:37.510Z,14.57
2017-10-20T06:06:04.429Z,13.90
2017-10-20T06:08:31.771Z,13.77
2017-10-20T06:10:58.670Z,12.67
2017-10-20T06:13:25.669Z,15.13
2017-10-20T06:15:52.602Z,16.90
2017-10-20T06:18:19.562Z,15.13
2017-10-20T06:20:46.449Z,17.07
2017-10-20T06:23:13.455Z,17.50
2017-10-20T06:25:40.393Z,17.47
2017-10-20T06:28:07.307Z,18.73
2017-10-20T06:30:34.337Z,17.87
2017-10-20T06:33:01.245Z,18.30
2017-10-20T06:35:28.130Z,16.40
2017-10-20T06:37:55.123Z,18.07
2017-10-20T06:40:22.006Z,18.07
2017-10-20T06:42:48.898Z,17.93
2017-10-20T06:45:15.807Z,19.40
2017-10-20T06:47:42.697Z,18.40
2017-10-20T06:50:09.618Z,18.17
2017-10-20T06:52:36.520Z,17.40
2017-10-20T06:55:03.902Z,16.60
2017-10-20T06:57:30.781Z,16.97
2017-10-20T06:59:57.669Z,19.13
2017-10-20T07:02:25.010Z,19.00
2017-10-20T07:04:51.957Z,19.30
2017-10-20T07:07:18.877Z,19.67
2017-10-20T07:09:45.766Z,18.80
2017-10-20T07:12:13.059Z,19.90
2017-10-20T07:14:39.969Z,17.90
2017-10-20T07:17:06.887Z,20.50
2017-10-20T07:19:33.775Z,21.33
2017-10-20T07:22:00.777Z,20.37
2017-10-20T07:24:27.662Z,21.10
2017-10-20T07:26:54.594Z,19.90
2017-10-20T07:29:21.910Z,21.73
2017-10-20T07:31:48.815Z,20.97
2017-10-20T07:34:15.823Z,18.30
2017-10-20T07:36:42.742Z,18.90
2017-10-20T07:39:09.641Z,19.73
2017-10-20T07:41:36.970Z,19.07
2017-10-20T07:44:03.920Z,19.37
2017-10-20T07:46:31.274Z,20.37
2017-10-20T07:48:58.162Z,19.60
2017-10-20T07:51:25.161Z,20.87
2017-10-20T07:53:52.115Z,21.10
2017-10-20T07:56:19.063Z,23.67
2017-10-20T07:58:46.051Z,21.07
2017-10-20T08:01:12.934Z,24.17
2017-10-20T08:03:39.840Z,23.07
2017-10-20T08:06:06.758Z,24.20
2017-10-20T08:08:34.073Z,23.30
2017-10-20T08:11:01.094Z,24.20
2017-10-20T08:13:27.970Z,23.53
2017-10-20T08:15:54.937Z,23.43
2017-10-20T08:18:22.026Z,22.27
2017-10-20T08:20:48.943Z,22.27
2017-10-20T08:23:16.331Z,21.00
2017-10-20T08:25:43.230Z,21.30
2017-10-20T08:28:10.156Z,21.20
2017-10-20T08:30:37.048Z,21.67
2017-10-20T08:33:03.981Z,20.40
2017-10-20T08:35:31.330Z,20.00
2017-10-20T08:37:58.280Z,20.80
2017-10-20T08:40:25.190Z,22.97
2017-10-20T08:42:52.123Z,22.03
2017-10-20T08:45:19.006Z,19.70
2017-10-20T08:47:45.894Z,21.53
2017-10-20T08:50:12.822Z,21.40
2017-10-20T08:52:40.108Z,21.00
2017-10-20T08:55:06.998Z,20.90
2017-10-20T08:57:33.926Z,20.70
2017-10-20T09:00:00.814Z,20.47
2017-10-20T09:02:28.153Z,20.70
2017-10-20T09:04:55.112Z,19.57
2017-10-20T09:07:22.454Z,19.97
2017-10-20T09:09:49.345Z,19.70
2017-10-20T09:12:16.338Z,19.10
2017-10-20T09:14:43.289Z,18.43
2017-10-20T09:17:10.278Z,19.43
2017-10-20T09:19:37.283Z,19.93
2017-10-20T09:22:04.168Z,19.80
2017-10-20T09:24:31.081Z,19.77
2017-10-20T09:26:58.025Z,19.40
2017-10-20T09:29:24.926Z,20.47
2017-10-20T09:31:51.832Z,17.73
2017-10-20T09:34:19.151Z,19.20
2017-10-20T09:36:46.037Z,19.30
2017-10-20T09:39:13.321Z,17.27
2017-10-20T09:41:40.310Z,18.40
2017-10-20T09:44:07.257Z,18.33
2017-10-20T09:46:34.210Z,18.40
2017-10-20T09:49:01.129Z,18.50
2017-10-20T09:51:28.106Z,17.37
2017-10-20T09:53:54.994Z,16.73
2017-10-20T09:56:21.917Z,17.03
2017-10-20T09:58:49.250Z,15.63
2017-10-20T10:01:16.199Z,15.70
2017-10-20T10:03:43.119Z,15.70
2017-10-20T10:06:10.006Z,14.30
2017-10-20T10:08:37.294Z,14.50
2017-10-20T10:11:04.218Z,14.03
2017-10-20T10:13:31.130Z,15.30
2017-10-20T10:15:58.077Z,14.90
2017-10-20T10:18:25.035Z,15.07
2017-10-20T10:20:51.966Z,14.30
2017-10-20T10:23:18.867Z,14.63
2017-10-20T10:25:45.789Z,14.50
2017-10-20T10:28:12.706Z,14.10
2017-10-20T10:30:39.650Z,15.20
2017-10-20T10:33:06.641Z,15.20
2017-10-20T10:35:33.546Z,16.00
2017-10-20T10:38:00.435Z,14.83
2017-10-20T10:40:27.352Z,15.87
2017-10-20T10:42:54.736Z,14.00
2017-10-20T10:45:21.622Z,14.10
2017-10-20T10:47:48.549Z,12.90
2017-10-20T10:50:15.433Z,13.20
2017-10-20T10:52:42.377Z,12.23
2017-10-20T10:55:09.317Z,12.40
2017-10-20T10:57:36.222Z,13.60
2017-10-20T11:00:03.106Z,13.70
2017-10-20T11:02:30.062Z,12.60
2017-10-20T11:05:03.737Z,12.77
2017-10-20T11:07:42.639Z,12.40
2017-10-20T11:10:21.613Z,8.40
2017-10-20T11:12:48.526Z,8.83
2017-10-20T11:15:15.409Z,7.47
2017-10-20T11:17:42.287Z,5.00
2017-10-20T11:20:09.293Z,4.47
2017-10-20T11:22:36.249Z,4.23
2017-10-20T11:25:03.137Z,4.40
2017-10-20T11:27:30.050Z,3.50
2017-10-20T11:29:57.391Z,3.87
2017-10-20T11:32:24.273Z,2.50
2017-10-20T11:34:51.185Z,2.17
2017-10-20T11:37:18.175Z,2.20
2017-10-20T11:39:45.055Z,2.10
2017-10-20T11:42:11.982Z,1.70
2017-10-20T11:44:38.970Z,2.07
2017-10-20T11:47:06.253Z,1.53
2017-10-20T11:49:33.165Z,1.60
2017-10-20T11:52:00.060Z,1.90
2017-10-20T11:54:26.952Z,1.50
2017-10-20T11:56:53.879Z,1.60
2017-10-20T11:59:20.822Z,1.50
2017-10-20T12:01:47.703Z,1.20
2017-10-20T12:04:14.646Z,1.17
2017-10-20T12:06:41.530Z,0.90
2017-10-20T12:09:08.427Z,1.23
2017-10-20T12:11:35.360Z,0.70
2017-10-20T12:14:02.322Z,1.80
2017-10-20T12:16:29.223Z,1.23
2017-10-20T12:18:56.139Z,1.10
2017-10-20T12:21:23.469Z,1.00
2017-10-20T12:23:50.423Z,1.00
2017-10-20T12:26:17.338Z,0.80
2017-10-20T12:28:44.229Z,1.00
2017-10-20T12:31:11.611Z,1.00
2017-10-20T12:33:38.526Z,1.20
2017-10-20T12:36:05.866Z,1.23
2017-10-20T12:38:32.745Z,1.40
2017-10-20T12:40:59.670Z,1.23
2017-10-20T12:43:26.957Z,1.20
2017-10-20T12:45:53.883Z,1.20
2017-10-20T12:48:21.259Z,1.07
2017-10-20T12:50:48.159Z,1.30
2017-10-20T12:53:15.151Z,1.30
2017-10-20T12:55:42.155Z,1.07
2017-10-20T12:58:09.043Z,1.87
2017-10-20T13:00:35.993Z,1.70
2017-10-20T13:03:02.906Z,1.90
2017-10-20T13:05:30.178Z,1.40
2017-10-20T13:07:57.097Z,2.03
2017-10-20T13:10:24.026Z,1.60
2017-10-20T13:12:50.985Z,1.93
2017-10-20T13:15:17.910Z,1.73
2017-10-20T13:17:44.831Z,1.70
2017-10-20T13:20:11.733Z,3.10
2017-10-20T13:22:39.022Z,2.40
2017-10-20T13:25:06.034Z,2.80
2017-10-20T13:27:32.912Z,2.47
2017-10-20T13:29:59.794Z,1.70
2017-10-20T13:32:26.762Z,1.93
2017-10-20T13:34:53.655Z,2.33
2017-10-20T13:37:20.550Z,2.03
2017-10-20T13:39:47.466Z,2.00
2017-10-20T13:42:14.447Z,1.67
2017-10-20T13:44:41.389Z,1.60
2017-10-20T13:47:08.338Z,1.70
2017-10-20T13:49:35.286Z,1.80
2017-10-20T13:52:02.162Z,1.50
2017-10-20T13:54:29.174Z,1.30
2017-10-20T13:56:56.167Z,1.40
2017-10-20T13:59:23.051Z,1.53
2017-10-20T14:01:49.966Z,2.20
2017-10-20T14:04:16.869Z,1.80
2017-10-20T14:06:43.750Z,1.83
2017-10-20T14:09:10.668Z,2.00
2017-10-20T14:11:37.942Z,2.30
2017-10-20T14:14:04.850Z,1.97
2017-10-20T14:16:31.765Z,1.90
2017-10-20T14:18:58.742Z,1.80
2017-10-20T14:21:25.631Z,1.60
2017-10-20T14:23:52.638Z,2.00
2017-10-20T14:26:19.527Z,1.90
2017-10-20T14:28:46.425Z,1.37
2017-10-20T14:31:13.378Z,1.43
2017-10-20T14:33:40.281Z,1.80
2017-10-20T14:36:07.170Z,1.67
2017-10-20T14:38:34.090Z,1.97
2017-10-20T14:41:00.982Z,1.77
2017-10-20T14:43:28.259Z,2.00
2017-10-20T14:45:55.195Z,2.30
2017-10-20T14:48:22.090Z,1.63
2017-10-20T14:50:49.050Z,1.80
2017-10-20T14:53:16.102Z,1.30
2017-10-20T14:55:42.980Z,2.10
2017-10-20T14:58:09.858Z,1.93
2017-10-20T15:00:36.790Z,2.20
2017-10-20T15:03:03.689Z,2.97
2017-10-20T15:05:31.034Z,2.13
2017-10-20T15:07:57.981Z,2.90
2017-10-20T15:10:24.972Z,1.83
2017-10-20T15:12:51.886Z,2.70
2017-10-20T15:15:19.242Z,2.00
2017-10-20T15:17:46.118Z,2.10
2017-10-20T15:20:13.006Z,2.00
2017-10-20T15:22:39.931Z,2.30
2017-10-20T15:25:06.823Z,2.00
2017-10-20T15:27:33.727Z,1.90
2017-10-20T15:30:01.012Z,2.07
2017-10-20T15:32:27.966Z,2.10
2017-10-20T15:34:54.842Z,2.00
2017-10-20T15:37:21.762Z,2.57
2017-10-20T15:39:49.110Z,2.40
2017-10-20T15:42:16.104Z,2.90
2017-10-20T15:44:43.148Z,2.10
2017-10-20T15:47:10.043Z,2.10
2017-10-20T15:49:36.990Z,1.73
2017-10-20T15:52:03.907Z,1.90
2017-10-20T15:54:30.931Z,2.47
2017-10-20T15:56:57.810Z,2.10
2017-10-20T15:59:24.736Z,1.90
2017-10-20T16:01:51.630Z,1.67
2017-10-20T16:04:18.583Z,1.90
2017-10-20T16:06:45.491Z,2.20
2017-10-20T16:09:12.463Z,1.97
2017-10-20T16:11:39.394Z,2.50
2017-10-20T16:14:06.309Z,1.60
2017-10-20T16:16:33.234Z,1.70
2017-10-20T16:19:00.123Z,1.80
2017-10-20T16:21:27.100Z,1.90
2017-10-20T16:23:53.990Z,2.03
2017-10-20T16:26:20.875Z,2.10
2017-10-20T16:28:47.827Z,1.90
2017-10-20T16:31:14.774Z,1.97
2017-10-20T16:33:41.728Z,2.53
2017-10-20T16:36:08.675Z,2.33
2017-10-20T16:38:35.576Z,2.30
2017-10-20T16:41:02.463Z,2.10
2017-10-20T16:43:29.377Z,3.27
2017-10-20T16:45:56.396Z,1.73
2017-10-20T16:48:23.279Z,2.13
2017-10-20T16:50:50.247Z,1.90
2017-10-20T16:53:17.138Z,2.20
2017-10-20T16:55:44.058Z,1.93
2017-10-20T16:58:11.362Z,2.20
2017-10-20T17:00:38.251Z,3.03
2017-10-20T17:03:05.533Z,3.57
2017-10-20T17:05:32.488Z,3.00
2017-10-20T17:07:59.400Z,2.70
2017-10-20T17:10:26.737Z,2.30
2017-10-20T17:12:53.673Z,2.80
2017-10-20T17:15:20.625Z,3.60
2017-10-20T17:17:47.598Z,2.57
2017-10-20T17:20:14.935Z,3.57
2017-10-20T17:22:41.884Z,2.53
2017-10-20T17:25:09.688Z,2.70
2017-10-20T17:27:36.697Z,2.70
2017-10-20T17:30:03.646Z,2.93
2017-10-20T17:32:30.530Z,2.77
2017-10-20T17:34:57.445Z,2.77
2017-10-20T17:37:24.790Z,2.50
2017-10-20T17:39:51.677Z,3.17
2017-10-20T17:42:18.619Z,2.77
2017-10-20T17:44:45.529Z,3.80
2017-10-20T17:47:12.474Z,2.70
2017-10-20T17:49:39.391Z,2.37
2017-10-20T17:52:06.279Z,3.70
2017-10-20T17:54:33.566Z,4.30
2017-10-20T17:57:00.498Z,3.67
2017-10-20T17:59:27.382Z,3.00
2017-10-20T18:01:54.353Z,3.10
2017-10-20T18:04:21.307Z,3.80
2017-10-20T18:06:48.194Z,2.90
2017-10-20T18:09:15.074Z,3.33
2017-10-20T18:11:42.033Z,3.00
2017-10-20T18:14:08.980Z,2.83
2017-10-20T18:16:35.874Z,6.33
2017-10-20T18:19:02.791Z,2.90
2017-10-20T18:21:30.077Z,3.17
2017-10-20T18:23:56.969Z,3.07
2017-10-20T18:26:23.895Z,4.27
2017-10-20T18:28:50.782Z,3.63
2017-10-20T18:31:18.063Z,3.67
2017-10-20T18:33:45.079Z,2.70
2017-10-20T18:36:12.418Z,3.17
2017-10-20T18:38:39.315Z,3.77
2017-10-20T18:41:06.316Z,4.30
2017-10-20T18:43:33.206Z,3.10
2017-10-20T18:46:00.124Z,3.63
2017-10-20T18:48:27.512Z,3.70
2017-10-20T18:50:54.405Z,4.13
2017-10-20T18:53:21.365Z,4.27
2017-10-20T18:55:48.706Z,4.53
2017-10-20T18:58:15.589Z,4.70
2017-10-20T19:00:42.511Z,4.40
2017-10-20T19:03:09.462Z,4.70
2017-10-20T19:05:36.738Z,4.07
2017-10-20T19:08:03.935Z,4.80
2017-10-20T19:10:30.900Z,4.30
2017-10-20T19:12:57.907Z,4.53
2017-10-20T19:15:24.857Z,5.47
2017-10-20T19:17:51.843Z,4.80
2017-10-20T19:20:18.728Z,5.00
2017-10-20T19:22:45.655Z,5.43
2017-10-20T19:25:12.974Z,4.70
2017-10-20T19:27:39.902Z,5.23
2017-10-20T19:30:06.798Z,4.77
2017-10-20T19:32:34.406Z,6.00
2017-10-20T19:35:01.386Z,5.50
2017-10-20T19:37:28.345Z,5.90
2017-10-20T19:39:55.664Z,6.30
2017-10-20T19:42:22.650Z,7.67
2017-10-20T19:44:49.538Z,6.90
2017-10-20T19:47:16.455Z,7.90
2017-10-20T19:49:43.773Z,8.60
2017-10-20T19:52:10.742Z,10.10
2017-10-20T19:54:38.065Z,10.70
2017-10-20T19:57:04.954Z,10.00
2017-10-20T19:59:32.307Z,9.80
2017-10-20T20:01:59.655Z,10.23
2017-10-20T20:04:27.003Z,12.50
2017-10-20T20:06:53.893Z,11.17
2017-10-20T20:09:20.894Z,12.13
2017-10-20T20:11:47.842Z,15.30
2017-10-20T20:14:14.721Z,11.53
2017-10-20T20:16:41.762Z,12.77
2017-10-20T20:19:09.059Z,11.60
2017-10-20T20:21:36.033Z,7.60
2017-10-20T20:24:02.987Z,7.23
2017-10-20T20:26:29.926Z,5.70
2017-10-20T20:28:56.815Z,6.40
2017-10-20T20:31:23.738Z,6.73
2017-10-20T20:33:51.030Z,7.57
2017-10-20T20:36:17.918Z,5.73
2017-10-20T20:38:44.865Z,6.20
2017-10-20T20:41:11.910Z,6.37
2017-10-20T20:43:38.861Z,7.00
2017-10-20T20:46:05.787Z,8.30
2017-10-20T20:48:32.677Z,8.30
2017-10-20T20:50:59.612Z,10.37
2017-10-20T20:53:26.966Z,8.80
2017-10-20T20:55:54.318Z,8.83
2017-10-20T20:58:21.198Z,8.57
2017-10-20T21:00:48.110Z,7.97
2017-10-20T21:03:14.990Z,8.90
2017-10-20T21:05:41.920Z,7.20
2017-10-20T21:08:09.245Z,8.03
2017-10-20T21:10:36.202Z,8.77
2017-10-20T21:13:03.083Z,8.20
2017-10-20T21:15:30.002Z,7.60
2017-10-20T21:17:57.284Z,7.50
2017-10-20T21:20:24.165Z,7.87
2017-10-20T21:22:51.079Z,7.53
2017-10-20T21:25:17.974Z,8.10
2017-10-20T21:27:44.854Z,8.23
2017-10-20T21:30:11.780Z,8.17
2017-10-20T21:32:39.049Z,8.07
2017-10-20T21:35:05.974Z,8.67
2017-10-20T21:37:32.894Z,9.40
2017-10-20T21:39:59.783Z,14.17
2017-10-20T21:42:27.103Z,14.70
2017-10-20T21:44:54.062Z,12.87
2017-10-20T21:47:21.006Z,10.90
2017-10-20T21:49:47.918Z,10.27
2017-10-20T21:52:14.820Z,10.10
2017-10-20T21:54:42.158Z,10.30
2017-10-20T21:57:09.037Z,9.00
2017-10-20T21:59:35.918Z,8.03
2017-10-20T22:02:02.890Z,8.20
2017-10-20T22:04:29.846Z,7.73
2017-10-20T22:06:57.198Z,9.20
2017-10-20T22:09:24.118Z,6.80
2017-10-20T22:11:51.034Z,6.80
2017-10-20T22:14:17.921Z,6.40
2017-10-20T22:16:44.838Z,6.77
2017-10-20T22:19:11.832Z,7.17
2017-10-20T22:21:38.715Z,5.60
2017-10-20T22:24:05.635Z,5.40
2017-10-20T22:26:32.965Z,6.37
2017-10-20T22:28:59.851Z,6.00
2017-10-20T22:31:26.757Z,5.80
2017-10-20T22:33:53.634Z,5.30
2017-10-20T22:36:20.646Z,5.67
2017-10-20T22:38:47.534Z,6.70
2017-10-20T22:41:14.485Z,6.70
2017-10-20T22:43:41.370Z,5.97
2017-10-20T22:46:08.264Z,6.00
2017-10-20T22:48:35.170Z,6.03
2017-10-20T22:51:02.122Z,5.17
2017-10-20T22:53:29.038Z,5.83
2017-10-20T22:55:56.013Z,5.70
2017-10-20T22:58:22.893Z,6.60
2017-10-20T23:00:50.277Z,6.20
2017-10-20T23:03:17.163Z,5.93
2017-10-20T23:05:44.115Z,6.20
2017-10-20T23:08:11.450Z,6.43
2017-10-20T23:10:38.352Z,4.93
2017-10-20T23:13:05.250Z,5.60
2017-10-20T23:15:32.171Z,5.70
2017-10-20T23:17:59.160Z,5.80
2017-10-20T23:20:26.512Z,6.10
2017-10-20T23:22:53.477Z,5.87
2017-10-20T23:25:20.814Z,5.40
2017-10-20T23:27:48.098Z,5.87
2017-10-20T23:30:15.018Z,4.47
2017-10-20T23:32:42.358Z,5.90
2017-10-20T23:35:09.246Z,4.90
2017-10-20T23:37:36.238Z,4.47
2017-10-20T23:40:03.205Z,4.77
2017-10-20T23:42:30.085Z,4.70
2017-10-20T23:44:56.997Z,4.50
2017-10-20T23:47:23.951Z,4.60
2017-10-20T23:49:50.826Z,4.20
2017-10-20T23:52:17.833Z,3.87
2017-10-20T23:54:44.746Z,4.80
2017-10-20T23:57:11.726Z,4.97
2017-10-20T23:59:38.667Z,4.00
